Time;durP1;ratioP1;P1;durP2;ratioP2;P2;SDS_P1;SDS_P2;PMS_P1;PMS_P2;Temp;Humidity;BMP_temperature;BMP_pressure;BME280_temperature;BME280_humidity;BME280_pressure;Samples;Min_cycle;Max_cycle;Signal;HPM_P1;HPM_P2
2023/12/24 00:00:19;;;;;;;1.00;1.00;;;9.70;99.90;;;;;;6147655;23;20432;-81
2023/12/24 00:02:59;;;;;;;1.30;1.20;;;9.70;99.90;;;;;;6123555;23;20403;-80
2023/12/24 00:05:39;;;;;;;0.90;0.90;;;9.30;99.90;;;;;;6148170;23;20427;-80
2023/12/24 00:08:28;;;;;;;0.87;0.87;;;9.70;99.90;;;;;;6149450;23;20393;-80
2023/12/24 00:11:08;;;;;;;1.13;0.87;;;9.70;99.90;;;;;;6149131;23;20425;-81
2023/12/24 00:13:43;;;;;;;0.90;0.90;;;9.80;99.90;;;;;;6148694;23;20452;-79
2023/12/24 00:16:17;;;;;;;0.70;0.70;;;9.60;99.90;;;;;;6147963;23;20427;-80
2023/12/24 00:19:01;;;;;;;1.30;1.20;;;9.70;99.90;;;;;;6147378;23;20427;-81
2023/12/24 00:21:52;;;;;;;1.00;1.00;;;9.60;99.90;;;;;;6147691;23;20437;-79
2023/12/24 00:24:31;;;;;;;2.53;1.13;;;9.60;99.90;;;;;;6146888;23;20401;-81
2023/12/24 00:27:12;;;;;;;1.10;1.00;;;9.40;99.90;;;;;;6145435;23;20420;-81
2023/12/24 00:29:40;;;;;;;0.63;0.63;;;9.70;99.90;;;;;;6147590;23;20416;-81
2023/12/24 00:32:09;;;;;;;0.70;0.70;;;9.60;99.90;;;;;;6149463;23;20480;-80
2023/12/24 00:34:42;;;;;;;1.10;1.10;;;9.60;99.90;;;;;;6148583;23;20424;-80
2023/12/24 00:37:11;;;;;;;0.80;0.80;;;9.60;99.90;;;;;;6147974;23;20417;-81
2023/12/24 00:39:42;;;;;;;0.80;0.80;;;9.60;99.90;;;;;;6149295;23;20417;-80
2023/12/24 00:42:11;;;;;;;1.13;1.10;;;9.60;99.90;;;;;;6148573;23;20396;-82
2023/12/24 00:44:43;;;;;;;1.13;0.87;;;9.50;99.90;;;;;;6148636;23;20440;-79
2023/12/24 00:47:15;;;;;;;0.80;0.80;;;9.60;99.90;;;;;;6147580;23;20423;-80
2023/12/24 00:49:49;;;;;;;0.70;0.70;;;9.70;99.90;;;;;;6148068;23;20374;-82
2023/12/24 00:52:22;;;;;;;0.93;0.93;;;9.60;99.90;;;;;;6149136;23;20428;-80
2023/12/24 00:54:50;;;;;;;0.73;0.73;;;9.70;99.90;;;;;;6147281;23;20440;-80
2023/12/24 00:57:27;;;;;;;0.70;0.70;;;9.30;99.90;;;;;;6148539;23;20436;-81
2023/12/24 00:59:56;;;;;;;0.70;0.70;;;9.60;99.90;;;;;;6151011;23;20404;-78
2023/12/24 01:02:33;;;;;;;0.77;0.77;;;9.60;99.90;;;;;;6152777;23;20412;-80
2023/12/24 01:05:08;;;;;;;0.77;0.73;;;9.60;99.90;;;;;;6153245;23;20432;-79
2023/12/24 01:07:43;;;;;;;0.50;0.50;;;9.60;99.90;;;;;;6153152;23;20420;-79
2023/12/24 01:10:14;;;;;;;0.80;0.80;;;9.70;99.90;;;;;;6152668;23;20459;-79
2023/12/24 01:12:48;;;;;;;1.10;1.00;;;9.70;99.90;;;;;;6152355;23;20424;-77
2023/12/24 01:15:19;;;;;;;0.90;0.90;;;9.70;99.90;;;;;;6153095;23;20381;-79
2023/12/24 01:17:49;;;;;;;0.77;0.77;;;9.70;99.90;;;;;;6152957;23;20420;-79
2023/12/24 01:20:19;;;;;;;0.73;0.73;;;9.70;99.90;;;;;;6152937;23;20432;-78
2023/12/24 01:22:57;;;;;;;1.20;0.77;;;9.50;99.90;;;;;;6153430;23;20398;-78
2023/12/24 01:25:28;;;;;;;0.77;0.77;;;9.60;99.90;;;;;;6153487;23;20396;-81
2023/12/24 01:27:59;;;;;;;0.87;0.87;;;9.60;99.90;;;;;;6153243;23;20400;-80
2023/12/24 01:30:26;;;;;;;0.83;0.70;;;9.70;99.90;;;;;;6153254;23;20420;-80
2023/12/24 01:32:55;;;;;;;1.37;0.90;;;9.70;99.90;;;;;;6152483;23;20423;-80
2023/12/24 01:35:31;;;;;;;0.90;0.83;;;9.60;99.90;;;;;;6152449;23;20369;-78
2023/12/24 01:38:01;;;;;;;0.87;0.87;;;9.60;99.90;;;;;;6152297;23;20400;-78
2023/12/24 01:40:33;;;;;;;0.80;0.80;;;9.60;99.90;;;;;;6151024;23;20435;-80
2023/12/24 01:43:07;;;;;;;1.63;1.53;;;9.70;99.90;;;;;;6150273;23;20389;-80
2023/12/24 01:45:36;;;;;;;0.80;0.80;;;9.60;99.90;;;;;;6150109;23;20388;-80
2023/12/24 01:48:07;;;;;;;0.80;0.80;;;9.60;99.90;;;;;;6149306;23;20399;-80
2023/12/24 01:50:44;;;;;;;0.90;0.90;;;9.60;99.90;;;;;;6151619;23;20433;-78
2023/12/24 01:53:16;;;;;;;0.70;0.70;;;9.60;99.90;;;;;;6152281;23;20475;-83
2023/12/24 01:55:49;;;;;;;1.13;1.00;;;9.60;99.90;;;;;;6151742;23;20393;-83
2023/12/24 01:58:20;;;;;;;1.20;1.10;;;9.70;99.90;;;;;;6153544;23;20389;-79
2023/12/24 02:01:18;;;;;;;1.33;1.23;;;9.30;99.90;;;;;;6152107;23;20427;-83
2023/12/24 02:03:48;;;;;;;1.23;1.23;;;9.60;99.90;;;;;;6152502;23;20385;-80
2023/12/24 02:06:22;;;;;;;1.83;1.00;;;9.60;99.90;;;;;;6152040;23;20427;-78
2023/12/24 02:09:05;;;;;;;1.23;1.10;;;9.60;99.90;;;;;;6152108;23;20388;-82
2023/12/24 02:12:01;;;;;;;0.97;0.97;;;9.30;99.90;;;;;;6151350;23;20480;-80
2023/12/24 02:14:39;;;;;;;1.00;1.00;;;9.60;99.90;;;;;;6150424;23;20428;-81
2023/12/24 02:17:29;;;;;;;1.10;1.10;;;9.70;99.90;;;;;;6147000;23;20499;-83
2023/12/24 02:20:06;;;;;;;1.30;0.90;;;9.60;99.90;;;;;;6146220;23;20386;-80
2023/12/24 02:22:46;;;;;;;5.87;1.00;;;9.30;99.90;;;;;;6143899;23;20424;-82
2023/12/24 02:25:24;;;;;;;1.33;1.23;;;9.60;99.90;;;;;;6144346;23;20401;-83
2023/12/24 02:28:02;;;;;;;0.90;0.90;;;9.60;99.90;;;;;;6144057;23;20408;-82
2023/12/24 02:30:38;;;;;;;0.90;0.90;;;9.60;99.90;;;;;;6139588;23;20460;-82
2023/12/24 02:33:10;;;;;;;2.20;0.90;;;9.30;99.90;;;;;;6134855;23;20804;-81
2023/12/24 02:35:45;;;;;;;0.87;0.87;;;9.70;99.90;;;;;;6133241;23;20443;-82
2023/12/24 02:38:17;;;;;;;1.33;0.90;;;9.60;99.90;;;;;;6135360;23;20412;-84
2023/12/24 02:40:48;;;;;;;1.10;1.10;;;9.50;99.90;;;;;;6138359;23;20428;-83
2023/12/24 02:43:19;;;;;;;0.87;0.87;;;9.60;99.90;;;;;;6138541;23;20409;-82
2023/12/24 02:45:48;;;;;;;0.90;0.90;;;9.60;99.90;;;;;;6138061;23;20425;-81
2023/12/24 02:48:29;;;;;;;0.87;0.87;;;9.80;99.90;;;;;;6138334;23;20445;-83
2023/12/24 02:51:00;;;;;;;0.87;0.87;;;9.50;99.90;;;;;;6140594;23;20448;-85
2023/12/24 02:53:33;;;;;;;0.70;0.70;;;9.50;99.90;;;;;;6141149;23;20434;-82
2023/12/24 02:56:05;;;;;;;1.10;1.00;;;9.20;99.90;;;;;;6140208;23;20837;-82
2023/12/24 02:58:47;;;;;;;1.00;0.90;;;9.50;99.90;;;;;;6140540;23;20482;-82
2023/12/24 03:01:27;;;;;;;1.00;1.00;;;9.50;99.90;;;;;;6140803;23;20440;-82
2023/12/24 03:03:56;;;;;;;0.83;0.83;;;9.50;99.90;;;;;;6140916;23;20390;-81
2023/12/24 03:06:29;;;;;;;0.80;0.70;;;9.40;99.90;;;;;;6141133;23;20401;-82
2023/12/24 03:09:03;;;;;;;0.70;0.70;;;9.40;99.90;;;;;;6140562;23;20487;-81
2023/12/24 03:11:36;;;;;;;1.40;0.90;;;9.40;99.90;;;;;;6141523;23;20526;-83
2023/12/24 03:14:04;;;;;;;0.70;0.70;;;9.40;99.90;;;;;;6142029;23;20439;-84
2023/12/24 03:16:38;;;;;;;0.70;0.70;;;9.40;99.90;;;;;;6141934;23;20900;-83
2023/12/24 03:19:06;;;;;;;1.07;1.07;;;9.40;99.90;;;;;;6140923;23;20420;-83
2023/12/24 03:21:37;;;;;;;0.80;0.80;;;9.40;99.90;;;;;;6137867;23;20464;-83
2023/12/24 03:24:09;;;;;;;1.10;1.10;;;9.40;99.90;;;;;;6136532;23;20462;-83
2023/12/24 03:26:45;;;;;;;0.87;0.87;;;9.40;99.90;;;;;;6137629;23;20438;-82
2023/12/24 03:29:27;;;;;;;1.00;0.90;;;9.40;99.90;;;;;;6136882;23;20378;-82
2023/12/24 03:32:14;;;;;;;0.77;0.77;;;9.40;99.90;;;;;;6138465;23;20491;-83
2023/12/24 03:34:45;;;;;;;1.00;1.00;;;9.40;99.90;;;;;;6137344;23;20437;-83
2023/12/24 03:37:14;;;;;;;1.07;1.00;;;9.40;99.90;;;;;;6140816;23;20421;-82
2023/12/24 03:39:44;;;;;;;0.97;0.90;;;9.40;99.90;;;;;;6140079;23;20637;-80
2023/12/24 03:42:16;;;;;;;0.90;0.90;;;9.40;99.90;;;;;;6140035;23;20401;-83
2023/12/24 03:44:47;;;;;;;1.30;0.83;;;9.40;99.90;;;;;;6139869;23;20431;-83
2023/12/24 03:47:18;;;;;;;1.53;0.83;;;9.40;99.90;;;;;;6140296;23;20463;-83
2023/12/24 03:49:51;;;;;;;0.83;0.83;;;9.40;99.90;;;;;;6138781;23;20415;-83
2023/12/24 03:52:19;;;;;;;1.13;1.10;;;9.40;99.90;;;;;;6139731;23;20421;-83
2023/12/24 03:54:49;;;;;;;0.90;0.90;;;9.40;99.90;;;;;;6139179;23;20500;-83
2023/12/24 03:57:17;;;;;;;0.90;0.90;;;9.40;99.90;;;;;;6134010;23;20424;-83
2023/12/24 03:59:45;;;;;;;1.07;1.07;;;9.40;99.90;;;;;;6132823;23;20703;-82
2023/12/24 04:02:15;;;;;;;2.40;1.00;;;9.40;99.90;;;;;;6130261;23;20456;-84
2023/12/24 04:04:52;;;;;;;0.87;0.87;;;9.40;99.90;;;;;;6130140;23;20417;-83
2023/12/24 04:07:22;;;;;;;1.17;1.17;;;9.40;99.90;;;;;;6133164;23;20463;-82
2023/12/24 04:09:53;;;;;;;1.20;1.10;;;9.40;99.90;;;;;;6132987;23;20377;-83
2023/12/24 04:12:35;;;;;;;1.13;1.13;;;9.40;99.90;;;;;;6134505;23;20401;-82
2023/12/24 04:15:11;;;;;;;0.80;0.80;;;9.40;99.90;;;;;;6135077;23;20451;-82
2023/12/24 04:17:42;;;;;;;1.30;1.30;;;9.40;99.90;;;;;;6137011;23;20966;-82
2023/12/24 04:20:18;;;;;;;0.70;0.70;;;9.60;99.90;;;;;;6136786;23;20999;-82
2023/12/24 04:22:52;;;;;;;1.27;1.27;;;9.40;99.90;;;;;;6137151;23;20442;-83
2023/12/24 04:25:26;;;;;;;1.10;1.10;;;9.40;99.90;;;;;;6135414;23;20755;-83
2023/12/24 04:28:05;;;;;;;0.90;0.90;;;9.60;99.90;;;;;;6136504;23;20405;-82
2023/12/24 04:30:37;;;;;;;1.30;1.30;;;9.40;99.90;;;;;;6135785;23;20837;-81
2023/12/24 04:33:10;;;;;;;1.10;1.10;;;9.40;99.90;;;;;;6135388;23;20467;-82
2023/12/24 04:35:45;;;;;;;1.07;1.07;;;9.40;99.90;;;;;;6135076;23;20439;-83
2023/12/24 04:38:17;;;;;;;1.10;1.10;;;9.40;99.90;;;;;;6134746;23;20439;-82
2023/12/24 04:40:48;;;;;;;1.13;1.13;;;9.50;99.90;;;;;;6134858;23;20459;-82
2023/12/24 04:43:36;;;;;;;1.10;1.10;;;9.50;99.90;;;;;;6138435;23;20479;-82
2023/12/24 04:46:14;;;;;;;1.43;0.90;;;9.50;99.90;;;;;;6139393;23;20415;-82
2023/12/24 04:48:48;;;;;;;1.10;1.10;;;9.40;99.90;;;;;;6141003;23;20821;-84
2023/12/24 04:51:27;;;;;;;1.27;1.27;;;9.40;99.90;;;;;;6140056;23;20930;-85
2023/12/24 04:53:56;;;;;;;1.40;1.40;;;9.40;99.90;;;;;;6140799;23;20412;-82
2023/12/24 04:56:27;;;;;;;1.00;1.00;;;9.40;99.90;;;;;;6140623;23;20492;-80
2023/12/24 04:59:09;;;;;;;1.30;1.20;;;9.40;99.90;;;;;;6136645;23;20396;-84
2023/12/24 05:01:37;;;;;;;1.10;1.10;;;9.40;99.90;;;;;;6136057;23;20428;-81
2023/12/24 05:04:26;;;;;;;1.40;1.30;;;9.40;99.90;;;;;;6138770;23;20502;-83
2023/12/24 05:09:39;;;;;;;1.20;1.20;;;9.30;99.90;;;;;;6133270;23;20397;-80
2023/12/24 05:12:16;;;;;;;0.90;0.90;;;9.00;99.90;;;;;;6135743;23;20499;-80
2023/12/24 05:14:48;;;;;;;0.73;0.73;;;9.30;99.90;;;;;;6138054;23;20467;-80
2023/12/24 05:17:18;;;;;;;3.60;0.97;;;9.30;99.90;;;;;;6138586;23;20425;-81
2023/12/24 05:19:48;;;;;;;0.80;0.80;;;9.20;99.90;;;;;;6140653;23;20432;-81
2023/12/24 05:22:27;;;;;;;0.90;0.90;;;9.30;99.90;;;;;;6141616;23;20739;-82
2023/12/24 05:24:56;;;;;;;1.80;0.90;;;9.20;99.90;;;;;;6142573;23;20407;-83
2023/12/24 05:27:35;;;;;;;1.10;1.10;;;9.50;99.90;;;;;;6141764;23;20412;-81
2023/12/24 05:30:03;;;;;;;0.90;0.90;;;9.20;99.90;;;;;;6147687;23;20872;-80
2023/12/24 05:32:34;;;;;;;0.80;0.80;;;9.20;99.90;;;;;;6147085;23;20409;-82
2023/12/24 05:35:11;;;;;;;1.20;1.10;;;9.20;99.90;;;;;;6146913;23;20444;-82
2023/12/24 05:37:39;;;;;;;1.07;0.80;;;9.20;99.90;;;;;;6146794;23;20542;-80
2023/12/24 05:40:10;;;;;;;0.90;0.90;;;9.20;99.90;;;;;;6144206;23;20420;-80
2023/12/24 05:42:43;;;;;;;0.90;0.90;;;9.20;99.90;;;;;;6144704;23;20468;-80
2023/12/24 05:45:12;;;;;;;0.90;0.90;;;9.40;99.90;;;;;;6139126;23;20400;-82
2023/12/24 05:47:45;;;;;;;1.43;1.13;;;9.20;99.90;;;;;;6133892;23;20503;-81
2023/12/24 05:50:16;;;;;;;0.70;0.70;;;9.20;99.90;;;;;;6132854;23;20444;-83
2023/12/24 05:52:44;;;;;;;0.90;0.90;;;9.20;99.90;;;;;;6135066;23;20488;-82
2023/12/24 05:55:17;;;;;;;1.13;0.97;;;9.10;99.90;;;;;;6133994;23;20436;-83
2023/12/24 05:57:49;;;;;;;3.07;1.20;;;9.20;99.90;;;;;;6133745;23;20484;-83
2023/12/24 06:00:22;;;;;;;0.90;0.90;;;9.10;99.90;;;;;;6133124;23;20487;-83
2023/12/24 06:02:56;;;;;;;0.80;0.80;;;9.20;99.90;;;;;;6132552;23;20496;-80
2023/12/24 06:05:26;;;;;;;0.83;0.83;;;9.10;99.90;;;;;;6138101;23;20467;-82
2023/12/24 06:07:58;;;;;;;1.33;0.80;;;9.20;99.90;;;;;;6137501;23;20409;-82
2023/12/24 06:10:28;;;;;;;0.97;0.60;;;9.20;99.90;;;;;;6137884;23;20440;-83
2023/12/24 06:12:59;;;;;;;0.80;0.80;;;9.20;99.90;;;;;;6136696;23;20432;-80
2023/12/24 06:15:30;;;;;;;0.80;0.80;;;9.20;99.90;;;;;;6133724;23;20776;-83
2023/12/24 06:17:59;;;;;;;1.33;0.87;;;9.20;99.90;;;;;;6132589;23;20405;-82
2023/12/24 06:20:29;;;;;;;0.70;0.70;;;9.20;99.90;;;;;;6133637;23;20920;-80
2023/12/24 06:23:01;;;;;;;0.80;0.80;;;9.40;99.90;;;;;;6132893;23;20405;-80
2023/12/24 06:25:30;;;;;;;0.90;0.90;;;9.20;99.90;;;;;;6133795;23;20401;-82
2023/12/24 06:27:59;;;;;;;0.90;0.90;;;9.40;99.90;;;;;;6135209;23;20463;-81
2023/12/24 06:30:30;;;;;;;0.70;0.70;;;9.10;99.90;;;;;;6133509;23;20432;-83
2023/12/24 06:32:58;;;;;;;1.07;0.83;;;9.40;99.90;;;;;;6131435;23;20455;-81
2023/12/24 06:35:27;;;;;;;0.90;0.90;;;9.20;99.90;;;;;;6132518;23;20433;-82
2023/12/24 06:37:56;;;;;;;0.97;0.97;;;9.20;99.90;;;;;;6136372;23;20424;-82
2023/12/24 06:40:29;;;;;;;0.70;0.70;;;9.20;99.90;;;;;;6133589;23;20492;-82
2023/12/24 06:42:57;;;;;;;0.77;0.77;;;9.50;99.90;;;;;;6136049;23;20818;-85
2023/12/24 06:45:34;;;;;;;0.80;0.80;;;9.20;99.90;;;;;;6134560;23;20409;-80
2023/12/24 06:48:07;;;;;;;0.90;0.90;;;9.20;99.90;;;;;;6136390;23;20511;-82
2023/12/24 06:50:42;;;;;;;0.87;0.87;;;9.20;99.90;;;;;;6135852;23;20448;-82
2023/12/24 06:53:13;;;;;;;0.70;0.70;;;9.20;99.90;;;;;;6134871;23;20494;-80
2023/12/24 06:55:48;;;;;;;0.90;0.90;;;9.20;99.90;;;;;;6133305;23;20440;-83
2023/12/24 06:58:17;;;;;;;1.07;1.07;;;9.20;99.90;;;;;;6134921;23;20475;-82
2023/12/24 07:00:50;;;;;;;0.97;0.87;;;9.40;99.90;;;;;;6132585;23;20488;-84
2023/12/24 07:03:19;;;;;;;0.77;0.77;;;9.20;99.90;;;;;;6133960;23;20417;-82
2023/12/24 07:05:52;;;;;;;1.27;1.27;;;9.20;99.90;;;;;;6133702;23;20420;-82
2023/12/24 07:08:25;;;;;;;0.77;0.77;;;9.20;99.90;;;;;;6133732;23;20710;-83
2023/12/24 07:11:00;;;;;;;0.90;0.90;;;9.30;99.90;;;;;;6134102;23;20432;-82
2023/12/24 07:13:31;;;;;;;0.83;0.83;;;9.30;99.90;;;;;;6136058;23;20455;-83
2023/12/24 07:16:01;;;;;;;0.90;0.90;;;9.30;99.90;;;;;;6135728;23;20440;-82
2023/12/24 07:18:32;;;;;;;0.80;0.80;;;9.30;99.90;;;;;;6135136;23;20436;-82
2023/12/24 07:20:59;;;;;;;0.80;0.80;;;9.40;99.90;;;;;;6130723;23;20500;-81
2023/12/24 07:23:27;;;;;;;0.83;0.83;;;9.40;99.90;;;;;;6129983;23;20412;-82
2023/12/24 07:25:55;;;;;;;0.73;0.73;;;9.40;99.90;;;;;;6131419;23;20436;-81
2023/12/24 07:28:28;;;;;;;0.90;0.90;;;9.40;99.90;;;;;;6130811;23;20412;-81
2023/12/24 07:30:57;;;;;;;2.17;0.97;;;9.40;99.90;;;;;;6132276;23;20429;-82
2023/12/24 07:33:27;;;;;;;0.73;0.73;;;9.50;99.90;;;;;;6133219;23;20428;-82
2023/12/24 07:35:55;;;;;;;1.20;0.90;;;9.50;99.90;;;;;;6134839;23;20464;-81
2023/12/24 07:38:29;;;;;;;0.90;0.90;;;9.50;99.90;;;;;;6134785;23;20408;-84
2023/12/24 07:40:58;;;;;;;0.70;0.70;;;9.50;99.90;;;;;;6136754;23;20469;-83
2023/12/24 07:43:30;;;;;;;0.90;0.90;;;9.50;99.90;;;;;;6133401;23;20453;-82
2023/12/24 07:46:01;;;;;;;1.00;1.00;;;9.50;99.90;;;;;;6134747;23;20439;-80
2023/12/24 07:48:31;;;;;;;0.87;0.80;;;9.50;99.90;;;;;;6138121;23;20403;-82
2023/12/24 07:51:01;;;;;;;0.93;0.93;;;9.50;99.90;;;;;;6136967;23;20440;-81
2023/12/24 07:53:32;;;;;;;0.90;0.90;;;9.50;99.90;;;;;;6138608;23;20401;-82
2023/12/24 07:55:59;;;;;;;1.03;0.83;;;9.50;99.90;;;;;;6134226;23;20515;-80
2023/12/24 07:58:27;;;;;;;1.10;1.10;;;9.50;99.90;;;;;;6135072;23;20409;-82
2023/12/24 08:00:55;;;;;;;0.73;0.73;;;9.50;99.90;;;;;;6134884;23;20444;-85
2023/12/24 08:03:23;;;;;;;0.93;0.93;;;9.70;99.90;;;;;;6134109;23;20508;-84
2023/12/24 08:05:55;;;;;;;1.97;0.87;;;9.50;99.90;;;;;;6137390;23;20405;-81
2023/12/24 08:08:22;;;;;;;0.93;0.93;;;9.50;99.90;;;;;;6134885;23;20428;-82
2023/12/24 08:10:57;;;;;;;0.70;0.70;;;9.50;99.90;;;;;;6135986;23;20522;-85
2023/12/24 08:13:26;;;;;;;0.87;0.87;;;9.50;99.90;;;;;;6136606;23;20440;-83
2023/12/24 08:15:54;;;;;;;0.70;0.70;;;9.60;99.90;;;;;;6132677;23;20461;-82
2023/12/24 08:18:23;;;;;;;0.90;0.90;;;9.60;99.90;;;;;;6131898;23;20416;-82
2023/12/24 08:20:51;;;;;;;0.70;0.70;;;9.60;99.90;;;;;;6134281;23;20428;-81
2023/12/24 08:23:20;;;;;;;0.80;0.70;;;9.60;99.90;;;;;;6131912;23;20469;-82
2023/12/24 08:25:47;;;;;;;0.80;0.80;;;9.70;99.90;;;;;;6130421;23;20781;-81
2023/12/24 08:28:14;;;;;;;0.63;0.63;;;9.70;99.90;;;;;;6129859;23;20458;-80
2023/12/24 08:30:42;;;;;;;2.50;1.00;;;9.70;99.90;;;;;;6130765;23;20443;-81
2023/12/24 08:33:18;;;;;;;0.73;0.73;;;9.70;99.90;;;;;;6129267;23;20424;-81
2023/12/24 08:35:48;;;;;;;0.80;0.80;;;9.70;99.90;;;;;;6130317;23;20814;-80
2023/12/24 08:38:16;;;;;;;0.73;0.73;;;9.80;99.90;;;;;;6129595;23;20409;-81
2023/12/24 08:40:51;;;;;;;1.23;0.70;;;9.80;99.90;;;;;;6131688;23;20428;-81
2023/12/24 08:43:23;;;;;;;1.17;0.60;;;9.80;99.90;;;;;;6133467;23;20412;-81
2023/12/24 08:45:53;;;;;;;0.70;0.70;;;9.80;99.90;;;;;;6140944;23;20404;-82
2023/12/24 08:48:26;;;;;;;0.50;0.50;;;9.80;99.90;;;;;;6140917;23;20412;-82
2023/12/24 08:50:55;;;;;;;0.87;0.87;;;9.80;99.90;;;;;;6141542;23;20515;-83
2023/12/24 08:53:26;;;;;;;0.80;0.80;;;9.80;99.90;;;;;;6143697;23;20463;-82
2023/12/24 08:55:55;;;;;;;0.67;0.67;;;9.90;99.90;;;;;;6150356;23;20458;-83
2023/12/24 08:58:25;;;;;;;0.63;0.63;;;9.90;99.90;;;;;;6151527;23;20398;-84
2023/12/24 09:00:53;;;;;;;0.60;0.60;;;9.90;99.90;;;;;;6147832;23;20413;-79
2023/12/24 09:03:24;;;;;;;0.70;0.70;;;9.90;99.90;;;;;;6144120;23;20419;-80
2023/12/24 09:05:52;;;;;;;0.60;0.60;;;10.00;99.90;;;;;;6146668;23;20413;-83
2023/12/24 09:08:21;;;;;;;0.60;0.60;;;10.00;99.90;;;;;;6145488;23;20413;-83
2023/12/24 09:10:49;;;;;;;0.70;0.70;;;10.10;99.90;;;;;;6133988;23;20952;-82
2023/12/24 09:13:26;;;;;;;0.60;0.60;;;10.10;99.90;;;;;;6133957;23;20447;-82
2023/12/24 09:15:54;;;;;;;0.60;0.60;;;10.10;99.90;;;;;;6135050;23;20440;-81
2023/12/24 09:18:25;;;;;;;0.70;0.70;;;10.10;99.90;;;;;;6137435;23;20412;-84
2023/12/24 09:20:54;;;;;;;0.60;0.60;;;10.10;99.90;;;;;;6137001;23;20520;-82
2023/12/24 09:23:26;;;;;;;0.70;0.70;;;10.10;99.90;;;;;;6142603;23;20439;-83
2023/12/24 09:25:54;;;;;;;0.80;0.73;;;10.10;99.90;;;;;;6143398;23;20465;-83
2023/12/24 09:28:28;;;;;;;1.33;0.80;;;10.00;99.90;;;;;;6138085;23;20484;-81
2023/12/24 09:30:57;;;;;;;0.60;0.60;;;10.00;99.90;;;;;;6136883;23;20433;-80
2023/12/24 09:33:25;;;;;;;0.50;0.50;;;10.20;99.90;;;;;;6142167;23;20896;-81
2023/12/24 09:35:54;;;;;;;0.73;0.73;;;10.00;99.90;;;;;;6139863;23;20444;-82
2023/12/24 09:38:24;;;;;;;0.83;0.83;;;9.90;99.90;;;;;;6136836;23;20413;-82
2023/12/24 09:40:52;;;;;;;0.90;0.90;;;9.80;99.90;;;;;;6140470;23;20505;-81
2023/12/24 09:43:20;;;;;;;0.70;0.70;;;9.80;99.90;;;;;;6147817;23;20412;-83
2023/12/24 09:46:00;;;;;;;0.70;0.70;;;9.80;99.90;;;;;;6146978;23;20429;-83
2023/12/24 09:48:27;;;;;;;0.60;0.60;;;9.90;99.90;;;;;;6148456;23;20453;-80
2023/12/24 09:50:55;;;;;;;0.73;0.73;;;9.80;99.90;;;;;;6146660;23;20428;-82
2023/12/24 09:53:22;;;;;;;0.70;0.70;;;9.70;99.90;;;;;;6145272;23;20413;-82
2023/12/24 09:55:59;;;;;;;0.87;0.87;;;9.70;99.90;;;;;;6142513;23;20471;-81
2023/12/24 09:58:33;;;;;;;0.90;0.90;;;9.70;99.90;;;;;;6140184;23;20419;-81
2023/12/24 10:01:03;;;;;;;2.97;2.67;;;9.70;99.90;;;;;;6141929;23;20439;-82
2023/12/24 10:03:33;;;;;;;1.00;1.00;;;9.70;99.90;;;;;;6138810;23;20485;-81
2023/12/24 10:06:03;;;;;;;1.00;0.90;;;9.70;99.90;;;;;;6138038;23;20444;-82
2023/12/24 10:08:31;;;;;;;1.60;0.90;;;9.70;99.90;;;;;;6138350;23;20468;-82
2023/12/24 10:11:14;;;;;;;0.70;0.70;;;10.00;99.90;;;;;;6139513;23;20437;-81
2023/12/24 10:13:49;;;;;;;0.77;0.77;;;9.80;99.90;;;;;;6140980;23;20397;-83
2023/12/24 10:16:20;;;;;;;0.93;0.80;;;9.80;99.90;;;;;;6142313;23;20443;-82
2023/12/24 10:18:50;;;;;;;1.00;1.00;;;9.80;99.90;;;;;;6143889;23;20384;-82
2023/12/24 10:21:27;;;;;;;1.03;1.03;;;9.60;99.90;;;;;;6144060;23;20421;-82
2023/12/24 10:24:07;;;;;;;1.00;0.80;;;9.90;99.90;;;;;;6146915;23;20435;-84
2023/12/24 10:26:38;;;;;;;0.70;0.70;;;9.90;99.90;;;;;;6146432;23;20397;-83
2023/12/24 10:29:08;;;;;;;0.87;0.87;;;9.80;99.90;;;;;;6144805;23;20472;-81
2023/12/24 10:31:42;;;;;;;0.70;0.70;;;9.90;99.90;;;;;;6142348;23;20520;-81
2023/12/24 10:34:14;;;;;;;0.80;0.70;;;10.00;99.90;;;;;;6140907;23;20428;-83
2023/12/24 10:36:46;;;;;;;0.80;0.80;;;10.00;99.90;;;;;;6141835;23;20441;-83
2023/12/24 10:39:24;;;;;;;0.70;0.70;;;10.00;99.90;;;;;;6143201;23;20420;-84
2023/12/24 10:41:57;;;;;;;0.90;0.90;;;9.80;99.90;;;;;;6145369;23;20455;-85
2023/12/24 10:44:36;;;;;;;1.60;0.87;;;10.10;99.90;;;;;;6141848;23;20450;-81
2023/12/24 10:47:26;;;;;;;0.73;0.73;;;10.10;99.90;;;;;;6144359;23;20845;-85
2023/12/24 10:50:03;;;;;;;0.70;0.70;;;10.10;99.90;;;;;;6143574;23;20439;-82
2023/12/24 10:52:34;;;;;;;0.90;0.90;;;10.20;99.90;;;;;;6140936;23;20542;-84
2023/12/24 10:55:03;;;;;;;0.87;0.87;;;10.20;99.90;;;;;;6142626;23;20433;-82
2023/12/24 10:57:47;;;;;;;0.70;0.70;;;10.20;99.90;;;;;;6145897;23;20436;-84
2023/12/24 11:00:20;;;;;;;0.70;0.70;;;10.20;99.90;;;;;;6145141;23;20456;-84
2023/12/24 11:02:53;;;;;;;0.67;0.60;;;10.20;99.90;;;;;;6144031;23;20412;-83
2023/12/24 11:05:51;;;;;;;0.77;0.77;;;10.50;99.90;;;;;;6143733;23;20397;-82
2023/12/24 11:08:37;;;;;;;0.67;0.67;;;10.30;99.90;;;;;;6143960;23;20420;-84
2023/12/24 11:11:20;;;;;;;0.70;0.70;;;10.00;99.90;;;;;;6144256;23;20740;-83
2023/12/24 11:13:55;;;;;;;0.70;0.70;;;10.40;99.90;;;;;;6144756;23;20419;-81
2023/12/24 11:16:42;;;;;;;0.70;0.70;;;10.40;99.90;;;;;;6144112;23;20431;-82
2023/12/24 11:19:26;;;;;;;0.70;0.70;;;10.40;99.90;;;;;;6143694;23;20412;-84
2023/12/24 11:22:27;;;;;;;0.70;0.70;;;10.50;99.90;;;;;;6144592;23;20429;-81
2023/12/24 11:25:20;;;;;;;0.70;0.70;;;10.40;99.90;;;;;;6091595;23;20459;-83
2023/12/24 11:27:56;;;;;;;0.87;0.87;;;10.50;99.90;;;;;;6137193;23;20520;-82
2023/12/24 11:30:59;;;;;;;0.80;0.80;;;10.30;99.90;;;;;;6137765;23;20473;-82
2023/12/24 11:33:48;;;;;;;0.67;0.60;;;10.60;99.90;;;;;;6114493;23;20419;-84
2023/12/24 11:36:20;;;;;;;0.73;0.73;;;10.70;99.90;;;;;;6134704;23;20522;-83
2023/12/24 11:38:50;;;;;;;0.67;0.67;;;10.40;99.90;;;;;;6138718;23;20494;-83
2023/12/24 11:41:21;;;;;;;0.70;0.70;;;10.70;99.90;;;;;;6135739;23;20441;-83
2023/12/24 11:44:02;;;;;;;0.70;0.70;;;10.70;99.90;;;;;;6135117;23;20504;-84
2023/12/24 11:46:39;;;;;;;0.70;0.70;;;10.80;99.90;;;;;;6141590;23;20408;-81
2023/12/24 11:49:19;;;;;;;0.97;0.97;;;10.90;99.90;;;;;;6144667;23;20468;-84
2023/12/24 11:51:50;;;;;;;0.70;0.70;;;10.60;99.90;;;;;;6146338;23;20440;-81
2023/12/24 11:54:26;;;;;;;0.60;0.60;;;11.10;99.90;;;;;;6138666;23;20429;-83
2023/12/24 11:57:15;;;;;;;1.03;1.03;;;11.10;99.90;;;;;;6136777;23;20441;-84
2023/12/24 11:59:59;;;;;;;0.77;0.77;;;11.00;99.90;;;;;;6135444;23;20429;-83
2023/12/24 12:02:30;;;;;;;0.73;0.73;;;11.00;99.90;;;;;;6135677;23;20486;-81
2023/12/24 12:08:13;;;;;;;0.70;0.70;;;11.20;99.90;;;;;;6137765;23;20479;-83
2023/12/24 12:10:44;;;;;;;0.57;0.57;;;11.20;99.90;;;;;;6143021;23;20506;-84
2023/12/24 12:13:15;;;;;;;0.50;0.50;;;11.30;99.90;;;;;;6143099;23;20440;-82
2023/12/24 12:16:01;;;;;;;0.80;0.80;;;11.30;99.90;;;;;;6142703;23;20417;-84
2023/12/24 12:18:33;;;;;;;0.67;0.67;;;11.40;99.90;;;;;;6139936;23;20771;-82
2023/12/24 12:21:12;;;;;;;0.70;0.70;;;11.30;99.90;;;;;;6135044;23;20439;-83
2023/12/24 12:23:47;;;;;;;0.50;0.50;;;11.30;99.90;;;;;;6140663;23;20408;-84
2023/12/24 12:26:24;;;;;;;0.50;0.50;;;11.40;99.90;;;;;;6141288;23;20476;-81
2023/12/24 12:29:07;;;;;;;0.40;0.40;;;11.40;99.90;;;;;;6139340;23;20714;-84
2023/12/24 12:31:44;;;;;;;0.60;0.60;;;11.40;99.90;;;;;;6137585;23;20649;-84
2023/12/24 12:34:23;;;;;;;0.93;0.60;;;11.50;99.90;;;;;;6142995;23;20460;-79
2023/12/24 12:37:02;;;;;;;0.80;0.80;;;11.70;99.90;;;;;;6143975;23;20443;-83
2023/12/24 12:39:39;;;;;;;0.60;0.60;;;11.40;99.90;;;;;;6141132;23;20409;-81
2023/12/24 12:42:15;;;;;;;0.57;0.57;;;11.50;99.90;;;;;;6137271;23;20409;-80
2023/12/24 12:44:52;;;;;;;0.70;0.70;;;11.50;99.90;;;;;;6138880;23;20476;-81
2023/12/24 12:47:29;;;;;;;0.83;0.70;;;11.50;99.90;;;;;;6136816;23;20401;-82
2023/12/24 12:50:07;;;;;;;0.40;0.40;;;11.40;99.90;;;;;;6137220;23;20452;-81
2023/12/24 12:52:58;;;;;;;0.70;0.70;;;11.20;99.90;;;;;;6140568;23;20436;-80
2023/12/24 12:55:42;;;;;;;0.83;0.83;;;11.50;99.90;;;;;;6140340;23;20507;-82
2023/12/24 12:58:18;;;;;;;0.60;0.60;;;11.80;99.90;;;;;;6139707;23;20495;-80
2023/12/24 13:03:58;;;;;;;0.53;0.53;;;11.70;99.90;;;;;;6139947;23;20401;-81
2023/12/24 13:06:26;;;;;;;0.50;0.50;;;11.20;99.90;;;;;;6136452;23;20492;-82
2023/12/24 13:09:10;;;;;;;0.50;0.50;;;11.40;99.90;;;;;;6138723;23;20409;-84
2023/12/24 13:11:41;;;;;;;0.70;0.70;;;11.70;99.90;;;;;;6138825;23;20522;-84
2023/12/24 13:14:22;;;;;;;0.53;0.53;;;11.50;99.90;;;;;;6141005;23;20402;-83
2023/12/24 13:17:14;;;;;;;0.40;0.40;;;11.50;99.90;;;;;;6139447;23;20504;-82
2023/12/24 13:23:04;;;;;;;0.60;0.60;;;11.50;99.90;;;;;;6138508;23;20709;-81
2023/12/24 13:25:41;;;;;;;0.50;0.50;;;11.40;99.90;;;;;;6142822;23;20409;-83
2023/12/24 13:28:35;;;;;;;0.40;0.40;;;11.40;99.90;;;;;;6143949;23;20405;-81
2023/12/24 13:31:05;;;;;;;0.50;0.50;;;11.20;99.90;;;;;;6139882;23;20744;-82
2023/12/24 13:33:44;;;;;;;0.60;0.60;;;11.30;99.90;;;;;;6140578;23;20417;-82
2023/12/24 13:36:23;;;;;;;0.60;0.60;;;11.30;99.90;;;;;;6141329;23;20413;-82
2023/12/24 13:39:04;;;;;;;0.77;0.77;;;11.00;99.90;;;;;;6139727;23;20496;-81
2023/12/24 13:41:43;;;;;;;0.67;0.67;;;11.30;99.90;;;;;;6136460;23;20433;-82